Time;durP1;ratioP1;P1;durP2;ratioP2;P2;SDS_P1;SDS_P2;PMS_P1;PMS_P2;Temp;Humidity;BMP_temperature;BMP_pressure;BME280_temperature;BME280_humidity;BME280_pressure;Samples;Min_cycle;Max_cycle;Signal;HPM_P1;HPM_P2
2024/04/17 00:01:05;;;;;;;10.30;2.20;;;;;;;7.60;75.63;99133.78;5119436;27;20431;-93
2024/04/17 00:03:32;;;;;;;9.55;2.72;;;;;;;7.59;75.83;99132.09;5147379;27;20019;-93
2024/04/17 00:05:58;;;;;;;5.35;1.67;;;;;;;7.57;75.86;99134.78;5147585;27;20016;-92
2024/04/17 00:08:43;;;;;;;7.05;1.92;;;;;;;7.49;74.29;99129.97;5147443;27;20013;-93
2024/04/17 00:11:10;;;;;;;7.38;2.20;;;;;;;7.54;75.80;99137.56;5119277;27;20009;-93
2024/04/17 00:13:37;;;;;;;8.20;2.47;;;;;;;7.53;76.23;99141.97;5119696;27;20008;-93
2024/04/17 00:16:12;;;;;;;6.63;1.90;;;;;;;7.48;75.02;99136.13;5119274;27;20005;-93
2024/04/17 00:18:39;;;;;;;6.38;1.95;;;;;;;7.49;75.63;99131.75;5119201;27;20044;-93
2024/04/17 00:21:06;;;;;;;10.40;2.30;;;;;;;7.48;75.61;99137.91;5119403;27;20009;-93
2024/04/17 00:23:53;;;;;;;8.00;1.98;;;;;;;7.40;74.43;99133.09;5119155;27;20018;-93
2024/04/17 00:26:20;;;;;;;6.80;1.95;;;;;;;7.43;75.46;99141.63;5119376;27;20001;-93
2024/04/17 00:28:46;;;;;;;10.98;2.05;;;;;;;7.41;75.68;99138.22;5118990;27;20088;-93
2024/04/17 00:31:27;;;;;;;4.00;1.67;;;;;;;7.36;74.37;99145.50;5119165;27;20017;-93
2024/04/17 00:33:54;;;;;;;12.30;2.40;;;;;;;7.38;75.49;99137.56;5119211;27;20402;-93
2024/04/17 00:36:27;;;;;;;7.53;2.00;;;;;;;7.33;74.29;99140.41;5146935;27;20080;-93
2024/04/17 00:38:53;;;;;;;6.28;1.90;;;;;;;7.33;75.38;99140.41;5147127;27;20005;-93
2024/04/17 00:41:20;;;;;;;5.47;2.15;;;;;;;7.31;75.30;99134.44;5118798;27;20024;-93
2024/04/17 00:43:48;;;;;;;10.65;2.60;;;;;;;7.28;75.37;99137.19;5147121;27;20020;-93
2024/04/17 00:46:15;;;;;;;11.93;2.67;;;;;;;7.28;75.63;99140.69;5118189;27;20005;-93
2024/04/17 00:48:42;;;;;;;5.70;1.95;;;;;;;7.26;75.44;99136.44;5146626;27;20068;-93
2024/04/17 00:51:21;;;;;;;5.70;2.15;;;;;;;7.20;74.45;99129.75;5146714;27;20442;-93
2024/04/17 00:53:48;;;;;;;9.10;2.28;;;;;;;7.23;75.66;99128.75;5118749;27;20001;-93
2024/04/17 00:56:27;;;;;;;7.93;2.10;;;;;;;7.17;75.04;99127.31;5119003;27;20115;-93
2024/04/17 00:58:54;;;;;;;6.90;2.65;;;;;;;7.20;76.13;99128.91;5118794;27;20439;-93
2024/04/17 01:01:20;;;;;;;10.02;2.08;;;;;;;7.20;75.88;99142.00;5118856;27;20518;-93
2024/04/17 01:03:48;;;;;;;12.32;2.00;;;;;;;7.18;75.85;99131.63;5118483;27;20050;-93
2024/04/17 01:06:16;;;;;;;8.65;2.28;;;;;;;7.16;75.94;99126.47;5146990;27;20001;-93
2024/04/17 01:08:42;;;;;;;8.52;2.42;;;;;;;7.17;75.84;99127.31;5118634;27;20004;-93
2024/04/17 01:11:54;;;;;;;7.32;2.10;;;;;;;7.12;74.46;99124.09;5118434;27;20446;-93
2024/04/17 01:14:21;;;;;;;8.35;2.30;;;;;;;7.14;75.58;99120.47;5118640;27;20012;-93
2024/04/17 01:16:56;;;;;;;6.47;2.20;;;;;;;7.11;75.10;99133.69;5118642;27;20017;-93
2024/04/17 01:19:23;;;;;;;9.27;2.15;;;;;;;7.12;75.84;99119.72;5118359;27;20404;-93
2024/04/17 01:21:50;;;;;;;6.68;1.77;;;;;;;7.10;76.31;99121.53;5118660;27;20013;-93
2024/04/17 01:24:17;;;;;;;7.38;2.92;;;;;;;7.10;76.18;99115.47;5118655;27;19997;-93
2024/04/17 01:26:54;;;;;;;10.85;2.10;;;;;;;7.08;75.16;99117.31;5146607;27;20005;-93
2024/04/17 01:29:21;;;;;;;11.65;2.53;;;;;;;7.10;76.11;99115.47;5118313;27;20005;-93
2024/04/17 01:31:47;;;;;;;14.95;2.33;;;;;;;7.08;75.79;99112.94;5146475;27;20005;-93
2024/04/17 01:34:15;;;;;;;13.10;2.55;;;;;;;7.06;76.10;99112.16;5118337;27;20443;-93
2024/04/17 01:36:42;;;;;;;8.38;2.47;;;;;;;7.06;76.48;99119.19;5118164;27;20020;-93
2024/04/17 01:39:08;;;;;;;8.68;2.17;;;;;;;7.05;76.28;99120.94;5118007;27;20326;-93
2024/04/17 01:41:37;;;;;;;11.80;2.35;;;;;;;7.04;76.18;99124.50;5117726;27;20002;-93
2024/04/17 01:44:04;;;;;;;15.45;2.63;;;;;;;7.04;76.44;99119.25;5118251;27;20005;-93
2024/04/17 01:46:31;;;;;;;8.23;1.90;;;;;;;7.04;76.42;99124.50;5118192;27;20050;-93
2024/04/17 01:49:00;;;;;;;6.65;1.92;;;;;;;7.02;76.01;99123.72;5145599;27;20012;-93
2024/04/17 01:51:26;;;;;;;12.00;2.40;;;;;;;7.01;76.24;99117.66;5117863;27;20474;-92
2024/04/17 01:53:53;;;;;;;9.00;2.83;;;;;;;7.01;76.12;99127.28;5118193;27;20004;-92
2024/04/17 01:59:48;;;;;;;6.85;2.60;;;;;;;6.99;76.27;99122.13;5148963;27;20011;-92
2024/04/17 02:02:26;;;;;;;14.10;2.00;;;;;;;6.93;75.07;99119.84;5120819;27;20001;-92
2024/04/17 02:04:53;;;;;;;8.70;1.98;;;;;;;6.94;76.01;99112.81;5149267;27;20016;-93
2024/04/17 02:07:19;;;;;;;9.38;2.30;;;;;;;6.92;76.05;99115.53;5148901;27;20016;-92
2024/04/17 02:10:08;;;;;;;10.98;2.45;;;;;;;6.86;74.91;99121.94;5148923;27;20380;-93
2024/04/17 02:12:35;;;;;;;7.20;2.30;;;;;;;6.88;76.19;99120.06;5121113;27;20008;-93
2024/04/17 02:15:03;;;;;;;11.48;2.42;;;;;;;6.88;75.76;99116.63;5120815;27;20005;-93
2024/04/17 02:17:29;;;;;;;9.90;2.55;;;;;;;6.85;75.96;99120.25;5120753;27;20054;-93
2024/04/17 02:19:56;;;;;;;9.10;2.40;;;;;;;6.83;75.93;99127.31;5121004;27;20001;-92
2024/04/17 02:22:36;;;;;;;7.78;2.00;;;;;;;6.78;74.97;99129.31;5148411;27;20017;-93
2024/04/17 02:25:03;;;;;;;10.40;2.28;;;;;;;6.79;75.52;99125.78;5148673;27;20017;-93
2024/04/17 02:27:30;;;;;;;6.80;2.17;;;;;;;6.77;75.51;99127.63;5148841;27;20009;-93
2024/04/17 02:30:16;;;;;;;8.75;2.83;;;;;;;6.71;74.77;99125.31;5120519;27;20017;-92
2024/04/17 02:32:42;;;;;;;6.97;2.45;;;;;;;6.72;75.57;99124.38;5148520;27;20016;-93
2024/04/17 02:35:38;;;;;;;8.70;2.10;;;;;;;6.65;75.28;99129.94;5120883;27;20315;-93
2024/04/17 02:38:04;;;;;;;6.15;2.20;;;;;;;6.67;75.52;99129.00;5120423;27;20319;-93
2024/04/17 02:41:01;;;;;;;11.73;2.40;;;;;;;6.60;74.81;99131.94;5148277;27;20328;-92
2024/04/17 02:43:28;;;;;;;5.93;2.42;;;;;;;6.62;75.62;99131.88;5120311;27;20331;-93
2024/04/17 02:45:55;;;;;;;7.43;1.88;;;;;;;6.58;75.29;99131.16;5120453;27;20012;-93
2024/04/17 02:48:28;;;;;;;5.38;2.53;;;;;;;6.54;74.90;99134.03;5120174;27;20446;-93
2024/04/17 02:50:54;;;;;;;;;;;;;;;6.54;74.58;99134.84;5121187;27;20005;-93
2024/04/17 02:53:21;;;;;;;8.27;2.20;;;;;;;6.55;75.55;99135.72;5120473;27;19929;-93
2024/04/17 02:55:48;;;;;;;12.60;2.83;;;;;;;6.49;75.51;99140.34;5120503;27;20331;-93
2024/04/17 02:58:14;;;;;;;13.77;2.80;;;;;;;6.47;75.82;99138.72;5120179;27;20016;-93
2024/04/17 03:00:56;;;;;;;4.82;2.00;;;;;;;6.42;75.63;99141.56;5120303;27;20005;-92
2024/04/17 03:03:22;;;;;;;11.07;2.30;;;;;;;6.44;76.21;99141.47;5148224;27;20418;-93
2024/04/17 03:05:49;;;;;;;11.80;2.72;;;;;;;6.42;76.35;99143.34;5120457;27;20012;-92
2024/04/17 03:08:34;;;;;;;10.20;2.70;;;;;;;6.38;76.19;99142.63;5120578;27;20388;-92
2024/04/17 03:11:02;;;;;;;11.32;3.30;;;;;;;6.41;76.91;99146.84;5119556;27;20013;-92
2024/04/17 03:13:29;;;;;;;5.40;2.45;;;;;;;6.41;77.13;99145.09;5120515;27;20005;-93
2024/04/17 03:16:03;;;;;;;11.93;2.53;;;;;;;6.38;76.56;99156.56;5148026;27;20077;-93
2024/04/17 03:18:30;;;;;;;13.00;3.00;;;;;;;6.41;77.38;99150.31;5120260;27;20009;-93
2024/04/17 03:21:00;;;;;;;6.00;1.92;;;;;;;6.41;77.11;99152.09;5120140;27;20005;-92
2024/04/17 03:23:28;;;;;;;11.10;2.55;;;;;;;6.42;76.90;99153.81;5120095;27;20017;-92
2024/04/17 03:25:59;;;;;;;11.27;3.22;;;;;;;6.41;76.99;99152.09;5120070;27;20001;-92
2024/04/17 03:28:27;;;;;;;15.93;2.45;;;;;;;6.43;77.21;99156.31;5119950;27;20005;-92
2024/04/17 03:31:22;;;;;;;10.05;2.80;;;;;;;6.40;76.38;99161.72;5119956;27;20081;-92
2024/04/17 03:33:48;;;;;;;16.17;2.45;;;;;;;6.44;77.17;99163.25;5119845;27;20019;-92
2024/04/17 03:36:15;;;;;;;6.57;2.45;;;;;;;6.43;77.10;99160.72;5119935;27;20012;-92
2024/04/17 03:38:44;;;;;;;15.88;2.67;;;;;;;6.42;76.83;99161.66;5119653;27;20009;-92
2024/04/17 03:41:11;;;;;;;9.90;2.60;;;;;;;6.43;76.96;99165.94;5147940;27;20001;-92
2024/04/17 03:43:48;;;;;;;12.18;2.50;;;;;;;6.39;76.39;99167.84;5119962;27;20005;-92
2024/04/17 03:46:15;;;;;;;5.63;2.53;;;;;;;6.41;77.04;99167.78;5120177;27;20013;-92
2024/04/17 03:48:41;;;;;;;6.05;2.38;;;;;;;6.39;76.71;99166.09;5119760;27;20025;-92
2024/04/17 03:51:09;;;;;;;9.63;2.47;;;;;;;6.39;76.51;99170.47;5147878;27;20008;-93
2024/04/17 03:53:36;;;;;;;9.93;2.40;;;;;;;6.38;76.77;99171.38;5147799;27;20012;-92
2024/04/17 03:56:03;;;;;;;9.23;3.10;;;;;;;6.36;76.95;99168.84;5119785;27;20008;-92
2024/04/17 03:58:39;;;;;;;7.40;2.80;;;;;;;6.32;76.62;99162.06;5119534;27;20021;-92
2024/04/17 04:01:06;;;;;;;12.10;3.00;;;;;;;6.36;77.07;99168.00;5119574;27;20013;-92
2024/04/17 04:03:33;;;;;;;9.75;3.30;;;;;;;6.34;77.15;99162.00;5119744;27;20008;-93
2024/04/17 04:06:01;;;;;;;10.15;3.00;;;;;;;6.32;77.24;99164.69;5147397;27;20012;-92
2024/04/17 04:08:27;;;;;;;8.98;3.35;;;;;;;6.32;77.08;99172.53;5119355;27;19997;-93
2024/04/17 04:11:07;;;;;;;6.93;2.78;;;;;;;6.28;76.53;99170.16;5119367;27;20005;-92
2024/04/17 04:13:34;;;;;;;9.80;3.22;;;;;;;6.31;77.39;99175.25;5147360;27;20005;-93
2024/04/17 04:16:04;;;;;;;15.50;3.08;;;;;;;6.28;77.35;99168.38;5119203;27;20013;-92
2024/04/17 04:18:30;;;;;;;7.60;3.17;;;;;;;6.28;77.40;99164.94;5119611;27;20008;-92
2024/04/17 04:21:16;;;;;;;11.13;3.63;;;;;;;6.25;76.98;99171.16;5119612;27;20457;-92
2024/04/17 04:23:47;;;;;;;10.65;3.08;;;;;;;6.27;76.96;99176.31;5147417;27;20458;-92
2024/04/17 04:26:14;;;;;;;10.45;3.08;;;;;;;6.29;77.49;99171.84;5119185;27;20017;-92
2024/04/17 04:28:41;;;;;;;10.07;3.40;;;;;;;6.27;77.46;99177.13;5119493;27;20009;-93
2024/04/17 04:31:40;;;;;;;9.93;3.35;;;;;;;6.22;77.31;99174.75;5119049;27;20013;-91
2024/04/17 04:34:06;;;;;;;12.75;3.65;;;;;;;6.29;77.86;99174.44;5119402;27;20008;-92
2024/04/17 04:36:33;;;;;;;7.18;3.35;;;;;;;6.29;78.54;99175.31;5119584;27;20008;-92
2024/04/17 04:39:19;;;;;;;13.20;3.45;;;;;;;6.28;77.86;99183.22;5147105;27;20330;-92
2024/04/17 04:41:46;;;;;;;11.20;3.95;;;;;;;6.34;78.66;99180.28;5119193;27;20005;-92
2024/04/17 04:44:29;;;;;;;8.73;3.30;;;;;;;6.33;77.74;99179.47;5147148;27;20016;-92
2024/04/17 04:46:56;;;;;;;7.38;2.92;;;;;;;6.39;78.63;99176.53;5119000;27;20020;-92
2024/04/17 04:49:25;;;;;;;11.80;3.28;;;;;;;6.43;78.75;99179.00;5118833;27;20029;-92
2024/04/17 04:51:52;;;;;;;6.75;3.17;;;;;;;6.46;79.12;99171.00;5118987;27;20008;-93
2024/04/17 04:54:34;;;;;;;10.30;3.67;;;;;;;6.46;78.41;99179.69;5147019;27;20012;-92
2024/04/17 04:57:01;;;;;;;6.03;2.30;;;;;;;6.53;79.20;99182.84;5147182;27;20450;-92
2024/04/17 04:59:28;;;;;;;10.45;3.28;;;;;;;6.58;79.48;99180.03;5118719;27;20005;-93
2024/04/17 05:01:58;;;;;;;14.18;3.42;;;;;;;6.60;79.12;99179.03;5146863;27;20001;-92
2024/04/17 05:04:25;;;;;;;10.60;3.72;;;;;;;6.66;79.73;99177.88;5118711;27;19997;-92
2024/04/17 05:06:52;;;;;;;10.63;3.83;;;;;;;6.68;79.79;99178.63;5118916;27;20012;-96
2024/04/17 05:09:19;;;;;;;11.57;3.92;;;;;;;6.71;79.78;99178.47;5119422;27;20029;-89
2024/04/17 05:11:47;;;;;;;9.32;3.53;;;;;;;6.75;79.77;99184.41;5146356;27;20002;-92
2024/04/17 05:20:34;;;;;;;9.57;4.38;;;;;;;6.86;79.20;99189.94;5391400;22;20335;-88
2024/04/17 05:23:00;;;;;;;7.05;3.28;;;;;;;6.93;79.92;99192.22;5114016;28;20439;-88
2024/04/17 05:25:27;;;;;;;12.52;3.42;;;;;;;6.96;79.72;99195.56;5112263;28;20016;-88
2024/04/17 05:28:03;;;;;;;9.27;3.47;;;;;;;6.96;78.52;99195.56;5114124;27;20044;-88
2024/04/17 05:30:29;;;;;;;6.53;3.30;;;;;;;7.00;79.27;99189.22;5113567;27;20006;-88
2024/04/17 05:33:02;;;;;;;10.45;3.55;;;;;;;7.01;78.53;99195.31;5114235;27;20025;-88
2024/04/17 05:35:29;;;;;;;9.27;4.10;;;;;;;7.04;79.13;99190.75;5115270;28;20014;-88
2024/04/17 05:37:56;;;;;;;7.88;3.42;;;;;;;7.06;78.93;99185.44;5115425;28;20451;-89
2024/04/17 05:40:24;;;;;;;8.38;3.70;;;;;;;7.07;79.00;99189.78;5115190;28;20334;-88
2024/04/17 05:42:51;;;;;;;6.65;3.33;;;;;;;7.09;79.10;99187.91;5116751;28;20017;-89
2024/04/17 05:45:18;;;;;;;8.98;3.60;;;;;;;7.12;79.32;99186.91;5116781;27;20010;-88
2024/04/17 05:47:48;;;;;;;7.68;3.15;;;;;;;7.13;79.07;99189.44;5115013;28;20010;-89
2024/04/17 05:50:15;;;;;;;9.93;2.90;;;;;;;7.18;79.68;99189.22;5115152;28;20323;-89
2024/04/17 05:52:41;;;;;;;12.52;3.60;;;;;;;7.22;79.74;99180.25;5114795;28;20082;-88
2024/04/17 05:55:20;;;;;;;9.43;3.65;;;;;;;7.22;78.47;99189.91;5115354;28;20009;-88
2024/04/17 05:57:47;;;;;;;10.20;3.72;;;;;;;7.29;79.58;99194.72;5116843;27;20002;-88
2024/04/17 06:00:20;;;;;;;9.82;3.53;;;;;;;7.30;78.77;99193.78;5116529;27;20336;-89
2024/04/17 06:02:47;;;;;;;11.25;3.53;;;;;;;7.36;80.09;99200.47;5116793;27;20021;-88
2024/04/17 06:05:15;;;;;;;9.13;3.88;;;;;;;7.40;80.53;99194.16;5115104;28;20013;-88
2024/04/17 06:07:42;;;;;;;9.60;3.83;;;;;;;7.47;81.21;99201.69;5116458;27;20025;-89
2024/04/17 06:10:09;;;;;;;12.05;4.43;;;;;;;7.55;81.47;99202.09;5116304;27;20018;-88
2024/04/17 06:12:36;;;;;;;11.77;5.22;;;;;;;7.64;81.87;99201.63;5116293;27;20010;-88
2024/04/17 06:15:04;;;;;;;12.10;6.32;;;;;;;7.71;81.77;99199.53;5114336;28;20033;-88
2024/04/17 06:17:31;;;;;;;12.68;6.10;;;;;;;7.82;82.24;99204.19;5141694;27;20021;-88
2024/04/17 06:19:58;;;;;;;15.15;6.10;;;;;;;7.90;82.06;99203.75;5116174;27;20087;-89
2024/04/17 06:22:25;;;;;;;12.40;5.40;;;;;;;8.00;81.91;99207.56;5114677;28;20443;-89
2024/04/17 06:24:54;;;;;;;13.20;5.28;;;;;;;8.07;81.91;99202.81;5114388;28;20459;-88
2024/04/17 06:27:21;;;;;;;11.65;5.10;;;;;;;8.18;82.13;99203.06;5114651;28;20013;-88
2024/04/17 06:29:48;;;;;;;8.60;5.13;;;;;;;8.27;81.79;99203.50;5114447;28;20002;-88
2024/04/17 06:32:15;;;;;;;13.45;5.43;;;;;;;8.33;81.94;99201.38;5116005;27;20009;-88
2024/04/17 06:34:42;;;;;;;10.60;4.40;;;;;;;8.42;82.15;99202.63;5115870;27;20020;-89
2024/04/17 06:37:17;;;;;;;14.82;5.05;;;;;;;8.50;80.67;99203.94;5116226;27;20020;-88
2024/04/17 06:39:43;;;;;;;10.60;4.85;;;;;;;8.61;82.06;99206.84;5114424;28;19997;-89
2024/04/17 06:42:13;;;;;;;16.50;5.88;;;;;;;8.66;80.88;99204.78;5115660;27;20009;-88
2024/04/17 06:44:40;;;;;;;11.90;6.18;;;;;;;8.73;81.58;99206.13;5115048;28;20372;-88
2024/04/17 06:47:43;;;;;;;12.13;7.63;;;;;;;8.78;79.57;99205.03;5116163;27;20089;-89
2024/04/17 06:50:12;;;;;;;;;;;;;;;8.90;79.17;99213.94;5116449;27;20002;-89
2024/04/17 06:52:39;;;;;;;24.02;11.18;;;;;;;8.99;80.94;99216.88;5115728;28;19936;-88
2024/04/17 06:55:06;;;;;;;19.77;11.48;;;;;;;9.01;80.96;99214.13;5114445;28;20017;-88
2024/04/17 06:57:33;;;;;;;19.90;13.00;;;;;;;9.05;80.86;99217.44;5115542;28;20001;-89
2024/04/17 07:00:00;;;;;;;19.67;11.73;;;;;;;9.10;81.08;99210.13;5115503;27;20016;-88
2024/04/17 07:02:27;;;;;;;20.98;13.25;;;;;;;9.14;80.88;99214.28;5115485;27;20017;-89
2024/04/17 07:04:53;;;;;;;21.48;14.57;;;;;;;9.16;80.05;99212.38;5115583;27;20042;-88
2024/04/17 07:07:20;;;;;;;19.67;14.13;;;;;;;9.18;80.22;99218.41;5115615;27;20438;-88
2024/04/17 07:09:50;;;;;;;19.98;14.98;;;;;;;9.20;79.22;99211.25;5115919;27;20010;-89
2024/04/17 07:12:19;;;;;;;19.52;13.60;;;;;;;9.23;80.09;99215.47;5115433;27;20006;-88
2024/04/17 07:14:48;;;;;;;24.60;14.82;;;;;;;9.25;80.44;99214.47;5114030;28;20010;-89
2024/04/17 07:17:18;;;;;;;18.52;13.07;;;;;;;9.26;79.48;99210.06;5115493;27;20010;-89
2024/04/17 07:19:46;;;;;;;16.38;12.70;;;;;;;9.31;80.14;99213.25;5115672;28;20006;-88
2024/04/17 07:22:12;;;;;;;20.55;13.10;;;;;;;9.34;79.38;99217.47;5113570;28;20013;-89
2024/04/17 07:24:39;;;;;;;18.38;12.25;;;;;;;9.34;79.63;99214.84;5113910;28;20033;-89
2024/04/17 07:27:07;;;;;;;14.50;11.18;;;;;;;9.35;79.54;99221.81;5113754;28;20001;-89
2024/04/17 07:29:34;;;;;;;18.50;9.00;;;;;;;9.35;79.93;99212.13;5113685;28;20005;-88
2024/04/17 07:32:01;;;;;;;13.85;8.80;;;;;;;9.38;80.49;99217.19;5115281;28;20388;-89
2024/04/17 07:34:29;;;;;;;12.57;8.77;;;;;;;9.41;80.56;99213.53;5115160;27;20005;-88
2024/04/17 07:36:56;;;;;;;10.82;7.78;;;;;;;9.48;80.74;99208.75;5115249;27;19998;-89
2024/04/17 07:39:23;;;;;;;9.68;5.43;;;;;;;9.54;80.73;99215.41;5114841;27;20009;-89
2024/04/17 07:41:49;;;;;;;12.02;6.15;;;;;;;9.59;80.77;99213.34;5113467;28;20006;-89
2024/04/17 07:44:17;;;;;;;13.57;7.20;;;;;;;9.61;80.65;99217.56;5114844;28;20057;-89
2024/04/17 07:46:44;;;;;;;13.68;8.30;;;;;;;9.68;80.87;99212.78;5113432;28;20002;-89
2024/04/17 07:49:18;;;;;;;11.27;7.25;;;;;;;9.70;78.74;99216.16;5115022;27;20006;-89
2024/04/17 07:51:45;;;;;;;14.05;8.30;;;;;;;9.79;80.36;99217.34;5112938;28;20020;-89
2024/04/17 07:54:11;;;;;;;15.45;9.73;;;;;;;9.81;80.13;99218.13;5114705;27;20444;-89
2024/04/17 07:56:38;;;;;;;15.75;11.88;;;;;;;9.85;79.49;99216.13;5114552;28;20014;-89
2024/04/17 07:59:05;;;;;;;19.35;13.20;;;;;;;9.86;79.14;99218.66;5113549;28;20014;-89
2024/04/17 08:01:37;;;;;;;14.75;12.02;;;;;;;9.83;77.46;99220.66;5112930;28;20010;-89
2024/04/17 08:04:03;;;;;;;14.80;10.98;;;;;;;9.84;78.43;99214.44;5113248;28;20034;-89
2024/04/17 08:06:30;;;;;;;10.73;8.93;;;;;;;9.85;78.13;99226.66;5113491;28;20038;-89
2024/04/17 08:08:57;;;;;;;11.45;7.65;;;;;;;9.83;78.07;99220.66;5114920;27;20002;-89
2024/04/17 08:11:28;;;;;;;11.82;8.32;;;;;;;9.80;77.04;99228.72;5112817;28;20013;-89
2024/04/17 08:13:58;;;;;;;8.88;6.93;;;;;;;9.77;77.74;99219.25;5113118;28;20002;-89
2024/04/17 08:16:26;;;;;;;8.38;7.05;;;;;;;9.72;77.35;99224.78;5112868;28;20462;-88
2024/04/17 08:18:54;;;;;;;8.18;6.03;;;;;;;9.71;77.64;99222.25;5139840;27;19998;-89
2024/04/17 08:21:21;;;;;;;9.73;6.28;;;;;;;9.69;77.87;99219.72;5114497;27;20030;-89
2024/04/17 08:23:59;;;;;;;6.45;5.60;;;;;;;9.63;76.34;99220.94;5114428;27;20002;-89
2024/04/17 08:26:26;;;;;;;7.72;5.38;;;;;;;9.67;77.94;99216.34;5113149;28;20046;-89
2024/04/17 08:28:53;;;;;;;6.30;5.63;;;;;;;9.65;77.84;99212.97;5139760;27;20010;-89
2024/04/17 08:31:20;;;;;;;9.15;5.50;;;;;;;9.63;78.54;99220.94;5112816;28;20014;-89
2024/04/17 08:33:46;;;;;;;7.18;5.40;;;;;;;9.64;78.42;99219.16;5113399;28;20006;-89
2024/04/17 08:36:13;;;;;;;6.78;5.00;;;;;;;9.62;78.13;99224.53;5114748;27;20016;-88
2024/04/17 08:38:41;;;;;;;9.00;5.60;;;;;;;9.62;78.01;99223.66;5114416;27;20017;-89
2024/04/17 08:41:08;;;;;;;6.80;4.82;;;;;;;9.60;78.00;99221.13;5112640;28;20028;-89
2024/04/17 08:43:37;;;;;;;6.45;3.80;;;;;;;9.59;77.57;99222.09;5114507;27;20350;-88
2024/04/17 08:46:05;;;;;;;4.35;3.45;;;;;;;9.59;78.36;99221.22;5114212;27;20455;-89
2024/04/17 08:48:32;;;;;;;7.05;3.17;;;;;;;9.58;77.92;99223.03;5114210;27;20014;-89
2024/04/17 08:51:02;;;;;;;3.47;2.47;;;;;;;9.56;77.85;99226.66;5114074;27;20017;-89
2024/04/17 08:53:30;;;;;;;3.78;2.45;;;;;;;9.56;78.35;99224.03;5112754;28;20335;-89
2024/04/17 08:55:57;;;;;;;2.65;1.90;;;;;;;9.56;78.94;99224.03;5114165;27;20016;-89
2024/04/17 08:58:26;;;;;;;2.85;2.00;;;;;;;9.56;78.35;99221.41;5114103;27;20025;-89
2024/04/17 09:00:55;;;;;;;5.45;1.90;;;;;;;9.57;78.72;99221.31;5112423;28;20010;-89
2024/04/17 09:03:23;;;;;;;3.65;1.80;;;;;;;9.60;79.17;99222.91;5112709;28;20017;-88
2024/04/17 09:05:53;;;;;;;2.15;1.60;;;;;;;9.63;78.83;99223.59;5114280;27;20018;-89
2024/04/17 09:08:24;;;;;;;3.30;1.83;;;;;;;9.68;79.87;99225.91;5111408;28;20086;-89
2024/04/17 09:10:51;;;;;;;2.17;1.77;;;;;;;9.74;81.06;99220.28;5112387;28;20014;-89
2024/04/17 09:13:19;;;;;;;4.00;1.90;;;;;;;9.85;82.06;99218.75;5114103;27;20020;-89
2024/04/17 09:15:47;;;;;;;1.98;1.70;;;;;;;9.97;81.95;99225.03;5112407;28;20010;-89
2024/04/17 09:18:13;;;;;;;4.20;2.10;;;;;;;10.07;81.36;99218.25;5113791;27;20025;-89
2024/04/17 09:28:15;;;;;;;3.97;1.30;;;;;;;10.26;78.64;99224.97;5117046;28;20022;-91
2024/04/17 09:34:31;;;;;;;2.20;1.58;;;;;;;10.28;79.13;99226.53;5116992;28;20005;-91
2024/04/17 09:40:46;;;;;;;1.80;1.50;;;;;;;10.48;81.50;99221.81;5116884;28;20123;-91
2024/04/17 09:46:56;;;;;;;2.58;1.67;;;;;;;10.78;81.32;99219.88;5116835;28;20013;-90
2024/04/17 09:53:12;;;;;;;1.77;1.58;;;;;;;11.11;81.84;99228.25;5116663;28;20055;-91
2024/04/17 09:59:54;;;;;;;2.45;1.67;;;;;;;11.38;78.75;99220.25;5082007;28;20009;-91
2024/04/17 10:06:08;;;;;;;1.58;1.30;;;;;;;11.45;77.07;99228.59;5081885;28;20013;-90
2024/04/17 10:12:22;;;;;;;1.00;0.90;;;;;;;11.34;76.88;99230.16;5081846;28;20344;-91
2024/04/17 10:18:37;;;;;;;0.60;0.55;;;;;;;11.33;78.82;99227.66;5116361;28;20095;-91
2024/04/17 10:28:38;;;;;;;0.60;0.60;;;;;;;11.51;77.52;99222.06;5119366;28;20008;-91
2024/04/17 10:34:52;;;;;;;1.00;0.80;;;;;;;11.46;76.04;99228.47;5119334;28;20087;-91
2024/04/17 10:41:11;;;;;;;2.05;1.20;;;;;;;11.26;73.01;99224.59;5119289;28;20009;-92
2024/04/17 10:47:27;;;;;;;5.38;1.85;;;;;;;11.01;74.38;99236.78;5119217;28;20347;-91
2024/04/17 10:53:36;;;;;;;2.83;1.65;;;;;;;10.80;75.04;99229.38;5119121;28;20013;-90
2024/04/17 11:00:03;;;;;;;1.98;1.45;;;;;;;10.67;76.04;99233.75;5119021;28;20446;-91
2024/04/17 11:06:17;;;;;;;1.90;0.90;;;;;;;10.64;77.49;99231.31;5118993;28;20030;-91
2024/04/17 11:12:31;;;;;;;1.65;1.20;;;;;;;10.73;78.85;99230.72;5118943;28;20008;-91
2024/04/17 11:18:46;;;;;;;1.77;0.60;;;;;;;11.02;80.16;99227.94;5118816;28;20458;-91
2024/04/17 11:28:12;;;;;;;2.25;0.70;;;;;;;11.60;80.72;99213.50;5118664;28;20009;-90
2024/04/17 11:34:25;;;;;;;1.15;0.98;;;;;;;12.08;81.00;99225.13;5118628;28;20008;-90
2024/04/17 11:40:44;;;;;;;3.78;1.48;;;;;;;12.49;78.59;99226.53;5118557;28;20009;-91
2024/04/17 11:46:58;;;;;;;1.20;1.10;;;;;;;12.90;77.30;99229.69;5118471;28;20008;-91
2024/04/17 11:53:12;;;;;;;1.30;0.95;;;;;;;12.99;75.01;99228.16;5118441;28;20077;-90
2024/04/17 11:59:38;;;;;;;2.30;0.85;;;;;;;12.81;73.78;99227.75;5118285;28;20013;-91
2024/04/17 12:05:52;;;;;;;0.70;0.70;;;;;;;12.55;73.44;99233.16;5118149;28;20017;-91
2024/04/17 12:12:06;;;;;;;0.73;0.70;;;;;;;12.27;74.21;99235.19;5118175;28;20009;-91
2024/04/17 12:18:20;;;;;;;1.95;0.90;;;;;;;12.16;75.34;99240.41;5118018;28;20038;-91
2024/04/17 12:28:21;;;;;;;2.40;1.10;;;;;;;12.43;81.40;99231.41;5117948;28;20013;-91
2024/04/17 12:34:36;;;;;;;3.75;1.00;;;;;;;12.90;78.52;99224.41;5117932;28;20078;-91
2024/04/17 12:40:51;;;;;;;2.35;0.93;;;;;;;13.14;77.13;99220.88;5117758;28;20074;-91
2024/04/17 12:47:18;;;;;;;5.03;1.83;;;;;;;13.20;74.75;99224.00;5117649;28;20030;-91
2024/04/17 12:53:33;;;;;;;4.97;1.08;;;;;;;13.07;73.83;99230.22;5117654;28;20021;-91
2024/04/17 12:59:48;;;;;;;3.10;1.08;;;;;;;12.95;74.20;99228.50;5117605;28;20017;-91
2024/04/17 13:06:02;;;;;;;3.22;1.27;;;;;;;12.87;74.84;99237.81;5117375;28;20012;-91
2024/04/17 13:12:23;;;;;;;4.53;1.27;;;;;;;12.85;74.87;99239.75;5117369;28;20009;-91
2024/04/17 13:18:39;;;;;;;1.20;0.85;;;;;;;12.83;74.89;99239.03;5117298;28;20073;-91
2024/04/17 13:28:46;;;;;;;2.47;0.98;;;;;;;12.81;75.06;99233.03;5117190;28;20009;-91
2024/04/17 13:35:00;;;;;;;4.63;1.48;;;;;;;12.94;76.47;99229.47;5117052;28;20343;-91
2024/04/17 13:41:17;;;;;;;1.98;0.90;;;;;;;13.23;77.58;99235.16;5117045;28;20074;-91
2024/04/17 13:47:43;;;;;;;1.45;0.82;;;;;;;13.59;75.92;99235.09;5116793;28;20121;-91
2024/04/17 13:53:52;;;;;;;3.45;1.00;;;;;;;13.87;75.70;99232.91;5117222;28;20009;-91
2024/04/17 14:00:00;;;;;;;3.22;0.90;;;;;;;14.15;74.91;99224.59;5119958;28;20478;-91
2024/04/17 14:06:15;;;;;;;3.03;0.75;;;;;;;14.31;74.17;99224.16;5119762;28;20011;-92
2024/04/17 14:12:29;;;;;;;1.75;0.80;;;;;;;14.46;73.07;99220.28;5119764;28;20012;-91
2024/04/17 14:22:31;;;;;;;1.35;0.50;;;;;;;14.38;71.05;99225.38;5119658;28;20074;-92
2024/04/17 14:32:45;;;;;;;2.58;0.63;;;;;;;14.13;66.68;99215.94;5119535;28;20013;-92
2024/04/17 14:38:59;;;;;;;0.90;0.60;;;;;;;14.33;77.66;99209.84;5119441;28;20012;-91
2024/04/17 14:45:25;;;;;;;3.13;0.73;;;;;;;15.65;85.90;99207.78;5119325;28;20033;-92
2024/04/17 14:51:33;;;;;;;0.60;0.50;;;;;;;17.20;78.08;99205.56;5119546;28;20012;-91
2024/04/17 14:57:41;;;;;;;1.85;0.68;;;;;;;18.30;77.79;99196.03;5119472;28;20004;-92
2024/04/17 15:03:54;;;;;;;2.10;0.60;;;;;;;19.26;72.78;99202.47;5119652;28;20013;-93
2024/04/17 15:10:08;;;;;;;1.60;0.50;;;;;;;19.89;68.30;99198.78;5119619;28;20051;-93
2024/04/17 15:16:22;;;;;;;0.95;0.50;;;;;;;20.25;65.50;99201.22;5119363;28;20013;-92
2024/04/17 15:22:36;;;;;;;1.40;0.50;;;;;;;20.24;62.90;99201.38;5119342;28;20017;-92
2024/04/17 15:32:44;;;;;;;1.92;0.75;;;;;;;19.25;54.49;99208.81;5119321;28;20050;-92
2024/04/17 15:38:57;;;;;;;0.90;0.63;;;;;;;18.36;59.91;99216.78;5118995;28;20012;-92
2024/04/17 15:45:12;;;;;;;1.25;0.57;;;;;;;17.85;62.63;99211.84;5118903;28;20066;-92
2024/04/17 15:51:26;;;;;;;1.88;0.70;;;;;;;18.03;64.89;99206.59;5118961;28;20037;-91
2024/04/17 19:43:24;;;;;;;4.75;1.40;;;;;;;9.18;70.12;99386.47;5265481;22;20032;-88
2024/04/17 19:45:51;;;;;;;6.35;1.50;;;;;;;9.12;70.27;99381.56;5115602;27;20009;-89
2024/04/17 19:48:19;;;;;;;2.83;1.50;;;;;;;9.10;70.43;99379.03;5116400;27;20020;-88
2024/04/17 19:50:59;;;;;;;3.42;1.60;;;;;;;9.04;69.17;99395.13;5111494;28;20081;-88
2024/04/17 19:53:26;;;;;;;3.67;1.33;;;;;;;9.07;70.92;99396.72;5083502;28;20345;-88
2024/04/17 19:55:53;;;;;;;2.63;1.50;;;;;;;9.04;70.98;99392.50;5095897;28;20026;-88